Cashion, Arizona
Current Conditions -  °F | °C
As of 6:47 AM on Thursday 30 Oct 2014 (Local Time) from KGYR Reporting Station
Few Clouds Few Clouds  
Wind Chill: 61°   Ceiling: Unl
Heat Index: 61°   Visibility: 10mi
Dew Point: 46°   Wind: 7mph
Humidity: 59%   Direction: 80°E
Pressure: 30.02"   Gusts: NA
Location:  33.44°N, 112.3°W
Report Text: KGYR 301347Z 08006KT 10SM FEW250 16/08 A3002
Loading
Personal Weather Stations






























Interactive Weather Map
Tropical Storm Tracking
New forecast layout! Learn more

10-Day Weather Forecast

Advertisements
Track Severe Weather on mobile